sensor_id;sensor_type;location;lat;lon;timestamp;P1;durP1;ratioP1;P2;durP2;ratioP2
20859;SDS011;10590;48.154;11.514;2023-05-31T00:02:44;2.50;;;2.20;;
20859;SDS011;10590;48.154;11.514;2023-05-31T00:08:08;4.50;;;2.77;;
20859;SDS011;10590;48.154;11.514;2023-05-31T00:13:29;3.10;;;2.47;;
20859;SDS011;10590;48.154;11.514;2023-05-31T00:18:51;7.17;;;2.53;;
20859;SDS011;10590;48.154;11.514;2023-05-31T00:24:15;2.70;;;2.10;;
20859;SDS011;10590;48.154;11.514;2023-05-31T00:29:37;2.60;;;1.60;;
20859;SDS011;10590;48.154;11.514;2023-05-31T00:34:59;2.13;;;1.90;;
20859;SDS011;10590;48.154;11.514;2023-05-31T00:40:22;6.90;;;2.20;;
20859;SDS011;10590;48.154;11.514;2023-05-31T00:45:44;2.63;;;2.00;;
20859;SDS011;10590;48.154;11.514;2023-05-31T00:51:06;3.47;;;2.67;;
20859;SDS011;10590;48.154;11.514;2023-05-31T00:56:30;9.43;;;2.40;;
20859;SDS011;10590;48.154;11.514;2023-05-31T01:01:52;4.73;;;2.63;;
20859;SDS011;10590;48.154;11.514;2023-05-31T01:07:16;6.73;;;2.40;;
20859;SDS011;10590;48.154;11.514;2023-05-31T01:12:44;2.87;;;2.30;;
20859;SDS011;10590;48.154;11.514;2023-05-31T01:18:14;5.50;;;2.30;;
20859;SDS011;10590;48.154;11.514;2023-05-31T01:23:49;2.23;;;2.03;;
20859;SDS011;10590;48.154;11.514;2023-05-31T01:29:23;4.03;;;2.10;;
20859;SDS011;10590;48.154;11.514;2023-05-31T01:34:47;7.53;;;2.43;;
20859;SDS011;10590;48.154;11.514;2023-05-31T01:40:10;2.43;;;1.90;;
20859;SDS011;10590;48.154;11.514;2023-05-31T01:45:36;6.40;;;2.27;;
20859;SDS011;10590;48.154;11.514;2023-05-31T01:50:59;5.77;;;2.30;;
20859;SDS011;10590;48.154;11.514;2023-05-31T01:56:22;2.90;;;2.60;;
20859;SDS011;10590;48.154;11.514;2023-05-31T02:01:47;5.67;;;2.50;;
20859;SDS011;10590;48.154;11.514;2023-05-31T02:07:09;2.87;;;1.57;;
20859;SDS011;10590;48.154;11.514;2023-05-31T02:12:33;3.87;;;1.97;;
20859;SDS011;10590;48.154;11.514;2023-05-31T02:17:56;7.60;;;2.70;;
20859;SDS011;10590;48.154;11.514;2023-05-31T02:23:19;2.93;;;2.03;;
20859;SDS011;10590;48.154;11.514;2023-05-31T02:28:41;5.80;;;2.50;;
20859;SDS011;10590;48.154;11.514;2023-05-31T02:34:04;3.73;;;2.40;;
20859;SDS011;10590;48.154;11.514;2023-05-31T02:39:26;2.03;;;1.63;;
20859;SDS011;10590;48.154;11.514;2023-05-31T02:44:48;1.97;;;1.73;;
20859;SDS011;10590;48.154;11.514;2023-05-31T02:50:11;1.93;;;1.60;;
20859;SDS011;10590;48.154;11.514;2023-05-31T02:55:33;2.43;;;2.23;;
20859;SDS011;10590;48.154;11.514;2023-05-31T03:00:55;2.90;;;1.63;;
20859;SDS011;10590;48.154;11.514;2023-05-31T03:06:18;2.63;;;1.97;;
20859;SDS011;10590;48.154;11.514;2023-05-31T03:11:40;3.47;;;2.00;;
20859;SDS011;10590;48.154;11.514;2023-05-31T03:17:02;3.67;;;2.33;;
20859;SDS011;10590;48.154;11.514;2023-05-31T03:22:26;5.90;;;1.93;;
20859;SDS011;10590;48.154;11.514;2023-05-31T03:27:48;4.30;;;2.23;;
20859;SDS011;10590;48.154;11.514;2023-05-31T03:33:11;2.20;;;2.00;;
20859;SDS011;10590;48.154;11.514;2023-05-31T03:38:34;3.40;;;1.97;;
20859;SDS011;10590;48.154;11.514;2023-05-31T03:43:56;4.60;;;2.20;;
20859;SDS011;10590;48.154;11.514;2023-05-31T03:49:18;2.40;;;2.20;;
20859;SDS011;10590;48.154;11.514;2023-05-31T03:54:41;10.20;;;2.77;;
20859;SDS011;10590;48.154;11.514;2023-05-31T04:00:03;2.30;;;2.10;;
20859;SDS011;10590;48.154;11.514;2023-05-31T04:05:27;2.80;;;2.00;;
20859;SDS011;10590;48.154;11.514;2023-05-31T04:10:50;3.13;;;1.87;;
20859;SDS011;10590;48.154;11.514;2023-05-31T04:16:12;2.50;;;2.00;;
20859;SDS011;10590;48.154;11.514;2023-05-31T04:21:33;1.73;;;1.60;;
20859;SDS011;10590;48.154;11.514;2023-05-31T04:26:57;3.40;;;2.47;;
20859;SDS011;10590;48.154;11.514;2023-05-31T04:32:19;3.17;;;2.43;;
20859;SDS011;10590;48.154;11.514;2023-05-31T04:37:41;4.57;;;2.17;;
20859;SDS011;10590;48.154;11.514;2023-05-31T04:43:05;3.73;;;2.10;;
20859;SDS011;10590;48.154;11.514;2023-05-31T04:48:27;3.23;;;2.10;;
20859;SDS011;10590;48.154;11.514;2023-05-31T04:53:49;4.50;;;2.20;;
20859;SDS011;10590;48.154;11.514;2023-05-31T04:59:12;7.67;;;2.83;;
20859;SDS011;10590;48.154;11.514;2023-05-31T05:04:34;6.63;;;2.10;;
20859;SDS011;10590;48.154;11.514;2023-05-31T05:09:56;3.63;;;2.00;;
20859;SDS011;10590;48.154;11.514;2023-05-31T05:15:20;3.57;;;1.80;;
20859;SDS011;10590;48.154;11.514;2023-05-31T05:20:42;2.97;;;1.87;;
20859;SDS011;10590;48.154;11.514;2023-05-31T05:26:04;5.23;;;2.00;;
20859;SDS011;10590;48.154;11.514;2023-05-31T05:31:27;5.90;;;2.17;;
20859;SDS011;10590;48.154;11.514;2023-05-31T05:36:49;6.40;;;2.53;;
20859;SDS011;10590;48.154;11.514;2023-05-31T05:42:12;3.20;;;2.73;;
20859;SDS011;10590;48.154;11.514;2023-05-31T05:47:36;6.47;;;2.30;;
20859;SDS011;10590;48.154;11.514;2023-05-31T05:52:57;3.67;;;2.37;;
20859;SDS011;10590;48.154;11.514;2023-05-31T05:58:20;2.13;;;1.90;;
20859;SDS011;10590;48.154;11.514;2023-05-31T06:03:43;5.13;;;2.60;;
20859;SDS011;10590;48.154;11.514;2023-05-31T06:09:06;4.33;;;2.30;;
20859;SDS011;10590;48.154;11.514;2023-05-31T06:14:28;4.80;;;2.00;;
20859;SDS011;10590;48.154;11.514;2023-05-31T06:19:52;5.30;;;2.33;;
20859;SDS011;10590;48.154;11.514;2023-05-31T06:25:14;2.90;;;2.03;;
20859;SDS011;10590;48.154;11.514;2023-05-31T06:30:36;6.53;;;2.00;;
20859;SDS011;10590;48.154;11.514;2023-05-31T06:35:59;3.63;;;2.03;;
20859;SDS011;10590;48.154;11.514;2023-05-31T06:41:21;4.57;;;2.20;;
20859;SDS011;10590;48.154;11.514;2023-05-31T06:46:43;2.67;;;2.30;;
20859;SDS011;10590;48.154;11.514;2023-05-31T06:52:07;3.37;;;2.17;;
20859;SDS011;10590;48.154;11.514;2023-05-31T06:57:29;8.10;;;2.43;;
20859;SDS011;10590;48.154;11.514;2023-05-31T07:02:51;2.90;;;2.10;;
20859;SDS011;10590;48.154;11.514;2023-05-31T07:08:15;4.60;;;1.90;;
20859;SDS011;10590;48.154;11.514;2023-05-31T07:13:37;8.80;;;4.27;;
20859;SDS011;10590;48.154;11.514;2023-05-31T07:18:59;6.53;;;2.00;;
20859;SDS011;10590;48.154;11.514;2023-05-31T07:24:22;4.20;;;2.03;;
20859;SDS011;10590;48.154;11.514;2023-05-31T07:29:44;2.40;;;2.20;;
20859;SDS011;10590;48.154;11.514;2023-05-31T07:35:06;7.07;;;2.37;;
20859;SDS011;10590;48.154;11.514;2023-05-31T07:40:30;5.23;;;2.20;;
20859;SDS011;10590;48.154;11.514;2023-05-31T07:45:52;6.10;;;2.23;;
20859;SDS011;10590;48.154;11.514;2023-05-31T07:51:14;2.73;;;2.03;;
20859;SDS011;10590;48.154;11.514;2023-05-31T07:56:38;3.63;;;2.20;;
20859;SDS011;10590;48.154;11.514;2023-05-31T08:02:00;3.47;;;2.53;;
20859;SDS011;10590;48.154;11.514;2023-05-31T08:07:23;7.03;;;2.40;;
20859;SDS011;10590;48.154;11.514;2023-05-31T08:12:47;5.67;;;2.17;;
20859;SDS011;10590;48.154;11.514;2023-05-31T08:18:09;2.67;;;1.80;;
20859;SDS011;10590;48.154;11.514;2023-05-31T08:23:31;4.00;;;1.93;;
20859;SDS011;10590;48.154;11.514;2023-05-31T08:28:55;6.13;;;1.83;;
20859;SDS011;10590;48.154;11.514;2023-05-31T08:34:17;2.83;;;2.10;;
20859;SDS011;10590;48.154;11.514;2023-05-31T08:39:39;2.53;;;1.70;;
20859;SDS011;10590;48.154;11.514;2023-05-31T08:45:03;6.00;;;2.13;;
20859;SDS011;10590;48.154;11.514;2023-05-31T08:50:26;6.40;;;2.20;;
20859;SDS011;10590;48.154;11.514;2023-05-31T08:55:51;3.97;;;2.03;;
20859;SDS011;10590;48.154;11.514;2023-05-31T09:01:15;4.50;;;2.10;;
20859;SDS011;10590;48.154;11.514;2023-05-31T09:06:38;3.17;;;1.77;;
20859;SDS011;10590;48.154;11.514;2023-05-31T09:12:01;2.57;;;1.73;;
20859;SDS011;10590;48.154;11.514;2023-05-31T09:17:24;4.63;;;2.00;;
20859;SDS011;10590;48.154;11.514;2023-05-31T09:22:46;5.40;;;2.20;;
20859;SDS011;10590;48.154;11.514;2023-05-31T09:28:09;2.30;;;1.73;;
20859;SDS011;10590;48.154;11.514;2023-05-31T09:33:39;2.90;;;1.97;;
20859;SDS011;10590;48.154;11.514;2023-05-31T09:39:03;5.70;;;2.00;;
20859;SDS011;10590;48.154;11.514;2023-05-31T09:44:28;4.07;;;1.90;;
20859;SDS011;10590;48.154;11.514;2023-05-31T09:49:53;5.43;;;1.90;;
20859;SDS011;10590;48.154;11.514;2023-05-31T09:55:16;3.70;;;1.93;;
20859;SDS011;10590;48.154;11.514;2023-05-31T10:00:43;3.60;;;1.90;;
20859;SDS011;10590;48.154;11.514;2023-05-31T10:06:07;5.97;;;1.77;;
20859;SDS011;10590;48.154;11.514;2023-05-31T10:11:31;2.37;;;2.17;;
20859;SDS011;10590;48.154;11.514;2023-05-31T10:16:55;3.33;;;1.83;;
20859;SDS011;10590;48.154;11.514;2023-05-31T10:22:18;2.50;;;2.00;;
20859;SDS011;10590;48.154;11.514;2023-05-31T10:27:42;3.87;;;1.87;;
20859;SDS011;10590;48.154;11.514;2023-05-31T10:33:06;6.90;;;1.70;;
20859;SDS011;10590;48.154;11.514;2023-05-31T10:38:34;3.92;;;1.85;;
20859;SDS011;10590;48.154;11.514;2023-05-31T10:44:00;3.33;;;1.93;;
20859;SDS011;10590;48.154;11.514;2023-05-31T10:49:28;3.20;;;1.90;;
20859;SDS011;10590;48.154;11.514;2023-05-31T10:54:56;2.20;;;1.87;;
20859;SDS011;10590;48.154;11.514;2023-05-31T11:00:36;3.60;;;1.80;;
20859;SDS011;10590;48.154;11.514;2023-05-31T11:06:06;1.73;;;1.50;;
20859;SDS011;10590;48.154;11.514;2023-05-31T11:11:43;5.80;;;1.83;;
20859;SDS011;10590;48.154;11.514;2023-05-31T11:17:13;5.17;;;2.27;;
20859;SDS011;10590;48.154;11.514;2023-05-31T11:22:36;2.90;;;2.03;;
20859;SDS011;10590;48.154;11.514;2023-05-31T11:28:05;2.27;;;1.93;;
20859;SDS011;10590;48.154;11.514;2023-05-31T11:33:27;10.60;;;2.60;;
20859;SDS011;10590;48.154;11.514;2023-05-31T11:39:05;5.87;;;2.10;;
20859;SDS011;10590;48.154;11.514;2023-05-31T11:44:29;4.30;;;2.30;;
20859;SDS011;10590;48.154;11.514;2023-05-31T11:49:52;3.77;;;2.50;;
20859;SDS011;10590;48.154;11.514;2023-05-31T11:55:15;5.13;;;2.40;;
20859;SDS011;10590;48.154;11.514;2023-05-31T12:00:43;3.33;;;2.10;;
20859;SDS011;10590;48.154;11.514;2023-05-31T12:06:07;5.95;;;2.45;;
20859;SDS011;10590;48.154;11.514;2023-05-31T12:11:28;3.10;;;2.23;;
20859;SDS011;10590;48.154;11.514;2023-05-31T12:16:52;3.27;;;1.97;;
20859;SDS011;10590;48.154;11.514;2023-05-31T12:22:14;5.67;;;2.27;;
20859;SDS011;10590;48.154;11.514;2023-05-31T12:27:36;5.53;;;2.40;;
20859;SDS011;10590;48.154;11.514;2023-05-31T12:32:59;4.37;;;2.20;;
20859;SDS011;10590;48.154;11.514;2023-05-31T12:38:26;2.93;;;1.90;;
20859;SDS011;10590;48.154;11.514;2023-05-31T12:43:49;4.63;;;2.40;;
20859;SDS011;10590;48.154;11.514;2023-05-31T12:49:18;2.75;;;2.13;;
20859;SDS011;10590;48.154;11.514;2023-05-31T12:54:42;6.67;;;2.30;;
20859;SDS011;10590;48.154;11.514;2023-05-31T13:00:06;4.68;;;2.05;;
20859;SDS011;10590;48.154;11.514;2023-05-31T13:05:34;3.10;;;2.20;;
20859;SDS011;10590;48.154;11.514;2023-05-31T13:10:56;7.90;;;2.92;;
20859;SDS011;10590;48.154;11.514;2023-05-31T13:16:18;7.10;;;2.20;;
20859;SDS011;10590;48.154;11.514;2023-05-31T13:21:41;3.97;;;2.17;;
20859;SDS011;10590;48.154;11.514;2023-05-31T13:27:03;4.82;;;1.85;;
20859;SDS011;10590;48.154;11.514;2023-05-31T13:32:26;3.13;;;1.98;;
20859;SDS011;10590;48.154;11.514;2023-05-31T13:37:49;8.05;;;2.50;;
20859;SDS011;10590;48.154;11.514;2023-05-31T13:43:11;4.97;;;2.25;;
20859;SDS011;10590;48.154;11.514;2023-05-31T13:48:33;2.92;;;2.63;;
20859;SDS011;10590;48.154;11.514;2023-05-31T13:53:56;3.58;;;2.50;;
20859;SDS011;10590;48.154;11.514;2023-05-31T13:59:18;3.28;;;1.90;;
20859;SDS011;10590;48.154;11.514;2023-05-31T14:04:40;3.10;;;2.43;;
20859;SDS011;10590;48.154;11.514;2023-05-31T14:10:04;2.60;;;1.70;;
20859;SDS011;10590;48.154;11.514;2023-05-31T14:15:26;3.50;;;2.57;;
20859;SDS011;10590;48.154;11.514;2023-05-31T14:20:48;3.15;;;2.15;;
20859;SDS011;10590;48.154;11.514;2023-05-31T14:26:12;2.40;;;1.55;;
20859;SDS011;10590;48.154;11.514;2023-05-31T14:31:34;9.90;;;3.00;;
20859;SDS011;10590;48.154;11.514;2023-05-31T14:36:57;10.10;;;2.30;;
20859;SDS011;10590;48.154;11.514;2023-05-31T14:42:21;3.47;;;2.15;;
20859;SDS011;10590;48.154;11.514;2023-05-31T14:47:43;3.80;;;2.30;;
20859;SDS011;10590;48.154;11.514;2023-05-31T14:53:06;5.75;;;2.08;;
20859;SDS011;10590;48.154;11.514;2023-05-31T14:58:33;2.57;;;2.10;;
20859;SDS011;10590;48.154;11.514;2023-05-31T15:03:55;4.40;;;2.05;;
20859;SDS011;10590;48.154;11.514;2023-05-31T15:09:17;2.53;;;1.90;;
20859;SDS011;10590;48.154;11.514;2023-05-31T15:14:41;5.10;;;2.23;;
20859;SDS011;10590;48.154;11.514;2023-05-31T15:20:03;3.60;;;1.93;;
20859;SDS011;10590;48.154;11.514;2023-05-31T15:25:26;2.10;;;1.50;;
20859;SDS011;10590;48.154;11.514;2023-05-31T15:30:49;4.13;;;1.97;;
20859;SDS011;10590;48.154;11.514;2023-05-31T15:36:11;1.87;;;1.47;;
20859;SDS011;10590;48.154;11.514;2023-05-31T15:41:33;2.10;;;1.88;;
20859;SDS011;10590;48.154;11.514;2023-05-31T15:46:57;2.27;;;2.07;;
20859;SDS011;10590;48.154;11.514;2023-05-31T15:52:19;3.07;;;2.00;;
20859;SDS011;10590;48.154;11.514;2023-05-31T15:57:41;2.47;;;2.07;;
20859;SDS011;10590;48.154;11.514;2023-05-31T16:03:04;5.53;;;2.27;;
20859;SDS011;10590;48.154;11.514;2023-05-31T16:08:26;5.43;;;2.27;;
20859;SDS011;10590;48.154;11.514;2023-05-31T16:13:48;4.77;;;2.67;;
20859;SDS011;10590;48.154;11.514;2023-05-31T16:19:12;4.97;;;2.47;;
20859;SDS011;10590;48.154;11.514;2023-05-31T16:24:33;6.77;;;2.77;;
20859;SDS011;10590;48.154;11.514;2023-05-31T16:29:58;5.93;;;2.83;;
20859;SDS011;10590;48.154;11.514;2023-05-31T16:35:21;4.93;;;2.27;;
20859;SDS011;10590;48.154;11.514;2023-05-31T16:40:44;3.80;;;2.30;;
20859;SDS011;10590;48.154;11.514;2023-05-31T16:46:06;4.70;;;2.60;;
20859;SDS011;10590;48.154;11.514;2023-05-31T16:51:29;5.90;;;2.50;;
20859;SDS011;10590;48.154;11.514;2023-05-31T16:56:52;4.33;;;2.83;;
20859;SDS011;10590;48.154;11.514;2023-05-31T17:02:14;3.40;;;2.43;;
20859;SDS011;10590;48.154;11.514;2023-05-31T17:07:37;2.93;;;2.30;;
20859;SDS011;10590;48.154;11.514;2023-05-31T17:12:59;2.77;;;2.40;;
20859;SDS011;10590;48.154;11.514;2023-05-31T17:18:20;4.00;;;2.87;;
20859;SDS011;10590;48.154;11.514;2023-05-31T17:23:44;3.67;;;2.40;;
20859;SDS011;10590;48.154;11.514;2023-05-31T17:29:06;4.83;;;2.57;;
20859;SDS011;10590;48.154;11.514;2023-05-31T17:34:28;3.47;;;2.37;;
20859;SDS011;10590;48.154;11.514;2023-05-31T17:39:51;4.30;;;2.37;;
20859;SDS011;10590;48.154;11.514;2023-05-31T17:45:13;17.87;;;3.23;;
20859;SDS011;10590;48.154;11.514;2023-05-31T17:50:36;6.50;;;3.03;;
20859;SDS011;10590;48.154;11.514;2023-05-31T17:55:59;5.80;;;2.50;;
20859;SDS011;10590;48.154;11.514;2023-05-31T18:01:21;29.90;;;5.47;;
20859;SDS011;10590;48.154;11.514;2023-05-31T18:06:43;6.97;;;2.57;;
20859;SDS011;10590;48.154;11.514;2023-05-31T18:12:07;12.73;;;4.53;;
20859;SDS011;10590;48.154;11.514;2023-05-31T18:17:30;7.83;;;3.87;;
20859;SDS011;10590;48.154;11.514;2023-05-31T18:22:52;5.10;;;3.13;;
20859;SDS011;10590;48.154;11.514;2023-05-31T18:28:15;7.37;;;2.87;;
20859;SDS011;10590;48.154;11.514;2023-05-31T18:33:39;5.30;;;2.90;;
20859;SDS011;10590;48.154;11.514;2023-05-31T18:39:01;4.53;;;2.87;;
20859;SDS011;10590;48.154;11.514;2023-05-31T18:44:25;8.80;;;3.07;;
20859;SDS011;10590;48.154;11.514;2023-05-31T18:49:47;2.67;;;2.47;;
20859;SDS011;10590;48.154;11.514;2023-05-31T18:55:09;4.17;;;2.93;;
20859;SDS011;10590;48.154;11.514;2023-05-31T19:00:32;3.57;;;2.83;;
20859;SDS011;10590;48.154;11.514;2023-05-31T19:05:55;7.20;;;3.10;;
20859;SDS011;10590;48.154;11.514;2023-05-31T19:11:18;5.17;;;2.87;;
20859;SDS011;10590;48.154;11.514;2023-05-31T19:16:42;4.17;;;3.07;;
20859;SDS011;10590;48.154;11.514;2023-05-31T19:22:04;3.97;;;3.03;;
20859;SDS011;10590;48.154;11.514;2023-05-31T19:27:28;5.27;;;2.93;;
20859;SDS011;10590;48.154;11.514;2023-05-31T19:32:54;5.10;;;3.30;;
20859;SDS011;10590;48.154;11.514;2023-05-31T19:38:16;8.40;;;3.17;;
20859;SDS011;10590;48.154;11.514;2023-05-31T19:43:39;4.70;;;3.10;;
20859;SDS011;10590;48.154;11.514;2023-05-31T19:49:07;6.77;;;2.90;;
20859;SDS011;10590;48.154;11.514;2023-05-31T19:54:29;5.07;;;3.10;;
20859;SDS011;10590;48.154;11.514;2023-05-31T19:59:54;8.13;;;3.30;;
20859;SDS011;10590;48.154;11.514;2023-05-31T20:05:20;5.70;;;3.47;;
20859;SDS011;10590;48.154;11.514;2023-05-31T20:10:42;11.23;;;3.80;;
20859;SDS011;10590;48.154;11.514;2023-05-31T20:16:06;5.73;;;3.53;;
20859;SDS011;10590;48.154;11.514;2023-05-31T20:21:30;4.63;;;3.50;;
20859;SDS011;10590;48.154;11.514;2023-05-31T20:26:53;3.50;;;2.93;;
20859;SDS011;10590;48.154;11.514;2023-05-31T20:32:15;4.60;;;3.77;;
20859;SDS011;10590;48.154;11.514;2023-05-31T20:37:40;9.67;;;4.47;;
20859;SDS011;10590;48.154;11.514;2023-05-31T20:43:01;7.47;;;4.10;;
20859;SDS011;10590;48.154;11.514;2023-05-31T20:48:23;6.33;;;3.60;;
20859;SDS011;10590;48.154;11.514;2023-05-31T20:53:49;5.77;;;3.60;;
20859;SDS011;10590;48.154;11.514;2023-05-31T20:59:11;6.73;;;3.60;;
20859;SDS011;10590;48.154;11.514;2023-05-31T21:04:34;4.23;;;3.57;;
20859;SDS011;10590;48.154;11.514;2023-05-31T21:09:57;6.03;;;4.33;;
20859;SDS011;10590;48.154;11.514;2023-05-31T21:15:22;5.50;;;3.80;;
20859;SDS011;10590;48.154;11.514;2023-05-31T21:20:44;6.07;;;3.63;;
20859;SDS011;10590;48.154;11.514;2023-05-31T21:26:07;6.77;;;4.13;;
20859;SDS011;10590;48.154;11.514;2023-05-31T21:31:29;12.50;;;4.20;;
20859;SDS011;10590;48.154;11.514;2023-05-31T21:36:52;4.50;;;4.03;;
20859;SDS011;10590;48.154;11.514;2023-05-31T21:42:16;7.50;;;4.23;;
20859;SDS011;10590;48.154;11.514;2023-05-31T21:47:37;11.63;;;4.60;;
20859;SDS011;10590;48.154;11.514;2023-05-31T21:52:59;6.27;;;4.03;;
20859;SDS011;10590;48.154;11.514;2023-05-31T21:58:23;5.90;;;3.73;;
20859;SDS011;10590;48.154;11.514;2023-05-31T22:03:45;6.97;;;4.80;;
20859;SDS011;10590;48.154;11.514;2023-05-31T22:09:07;9.17;;;4.63;;
20859;SDS011;10590;48.154;11.514;2023-05-31T22:14:31;7.27;;;4.17;;
20859;SDS011;10590;48.154;11.514;2023-05-31T22:19:54;6.67;;;4.27;;
20859;SDS011;10590;48.154;11.514;2023-05-31T22:25:19;6.87;;;4.30;;
20859;SDS011;10590;48.154;11.514;2023-05-31T22:30:43;6.43;;;4.50;;
20859;SDS011;10590;48.154;11.514;2023-05-31T22:36:05;7.17;;;4.00;;
20859;SDS011;10590;48.154;11.514;2023-05-31T22:41:27;5.93;;;4.07;;
20859;SDS011;10590;48.154;11.514;2023-05-31T22:46:51;7.03;;;4.13;;
20859;SDS011;10590;48.154;11.514;2023-05-31T22:52:13;10.77;;;4.20;;
20859;SDS011;10590;48.154;11.514;2023-05-31T22:57:35;6.53;;;4.83;;
20859;SDS011;10590;48.154;11.514;2023-05-31T23:02:58;10.83;;;5.00;;
20859;SDS011;10590;48.154;11.514;2023-05-31T23:08:20;6.80;;;3.90;;
20859;SDS011;10590;48.154;11.514;2023-05-31T23:13:44;8.47;;;4.53;;
20859;SDS011;10590;48.154;11.514;2023-05-31T23:19:10;7.80;;;4.33;;
20859;SDS011;10590;48.154;11.514;2023-05-31T23:24:32;8.57;;;4.37;;
20859;SDS011;10590;48.154;11.514;2023-05-31T23:29:55;14.17;;;4.50;;
20859;SDS011;10590;48.154;11.514;2023-05-31T23:35:18;12.83;;;5.43;;
20859;SDS011;10590;48.154;11.514;2023-05-31T23:40:40;4.53;;;3.70;;
20859;SDS011;10590;48.154;11.514;2023-05-31T23:46:02;5.13;;;3.70;;
20859;SDS011;10590;48.154;11.514;2023-05-31T23:51:25;10.57;;;4.70;;
20859;SDS011;10590;48.154;11.514;2023-05-31T23:56:47;7.50;;;4.60;;
